sensor_id;sensor_type;location;lat;lon;timestamp;temperature;humidity
55091;DHT22;40985;53.180;5.800;2024-02-26T00:01:59;3.30;99.90
55091;DHT22;40985;53.180;5.800;2024-02-26T00:04:24;3.10;99.90
55091;DHT22;40985;53.180;5.800;2024-02-26T00:06:50;3.00;99.90
55091;DHT22;40985;53.180;5.800;2024-02-26T00:09:17;3.30;99.90
55091;DHT22;40985;53.180;5.800;2024-02-26T00:11:42;3.10;99.90
55091;DHT22;40985;53.180;5.800;2024-02-26T00:14:08;3.00;99.90
55091;DHT22;40985;53.180;5.800;2024-02-26T00:16:34;3.30;99.90
55091;DHT22;40985;53.180;5.800;2024-02-26T00:18:59;3.20;99.90
55091;DHT22;40985;53.180;5.800;2024-02-26T00:21:25;3.30;99.90
55091;DHT22;40985;53.180;5.800;2024-02-26T00:23:52;3.20;99.90
55091;DHT22;40985;53.180;5.800;2024-02-26T00:26:18;3.10;99.90
55091;DHT22;40985;53.180;5.800;2024-02-26T00:28:43;3.40;99.90
55091;DHT22;40985;53.180;5.800;2024-02-26T00:31:09;3.20;99.90
55091;DHT22;40985;53.180;5.800;2024-02-26T00:33:35;3.10;99.90
55091;DHT22;40985;53.180;5.800;2024-02-26T00:36:01;3.10;99.90
55091;DHT22;40985;53.180;5.800;2024-02-26T00:38:26;3.30;99.90
55091;DHT22;40985;53.180;5.800;2024-02-26T00:40:52;3.40;99.90
55091;DHT22;40985;53.180;5.800;2024-02-26T00:43:18;3.30;99.90
55091;DHT22;40985;53.180;5.800;2024-02-26T00:45:43;3.40;99.90
55091;DHT22;40985;53.180;5.800;2024-02-26T00:48:09;3.20;99.90
55091;DHT22;40985;53.180;5.800;2024-02-26T00:50:35;3.40;99.90
55091;DHT22;40985;53.180;5.800;2024-02-26T00:53:01;3.30;99.90
55091;DHT22;40985;53.180;5.800;2024-02-26T00:55:27;3.20;99.90
55091;DHT22;40985;53.180;5.800;2024-02-26T00:57:52;3.10;99.90
55091;DHT22;40985;53.180;5.800;2024-02-26T01:00:18;3.20;99.90
55091;DHT22;40985;53.180;5.800;2024-02-26T01:02:44;3.10;99.90
55091;DHT22;40985;53.180;5.800;2024-02-26T01:05:13;3.20;99.90
55091;DHT22;40985;53.180;5.800;2024-02-26T01:07:39;3.30;99.90
55091;DHT22;40985;53.180;5.800;2024-02-26T01:10:08;3.30;99.90
55091;DHT22;40985;53.180;5.800;2024-02-26T01:12:34;3.10;99.90
55091;DHT22;40985;53.180;5.800;2024-02-26T01:15:03;3.10;99.90
55091;DHT22;40985;53.180;5.800;2024-02-26T01:17:30;3.10;99.90
55091;DHT22;40985;53.180;5.800;2024-02-26T01:19:55;3.40;99.90
55091;DHT22;40985;53.180;5.800;2024-02-26T01:22:21;3.40;99.90
55091;DHT22;40985;53.180;5.800;2024-02-26T01:24:47;3.20;99.90
55091;DHT22;40985;53.180;5.800;2024-02-26T01:27:13;3.20;99.90
55091;DHT22;40985;53.180;5.800;2024-02-26T01:29:41;3.30;99.90
55091;DHT22;40985;53.180;5.800;2024-02-26T01:32:06;3.10;99.90
55091;DHT22;40985;53.180;5.800;2024-02-26T01:34:32;3.10;99.90
55091;DHT22;40985;53.180;5.800;2024-02-26T01:36:58;3.10;99.90
55091;DHT22;40985;53.180;5.800;2024-02-26T01:39:24;3.30;99.90
55091;DHT22;40985;53.180;5.800;2024-02-26T01:41:49;3.10;99.90
55091;DHT22;40985;53.180;5.800;2024-02-26T01:44:15;3.30;99.90
55091;DHT22;40985;53.180;5.800;2024-02-26T01:46:41;3.20;99.90
55091;DHT22;40985;53.180;5.800;2024-02-26T01:49:08;3.10;99.90
55091;DHT22;40985;53.180;5.800;2024-02-26T01:51:38;3.10;99.90
55091;DHT22;40985;53.180;5.800;2024-02-26T01:54:06;3.20;99.90
55091;DHT22;40985;53.180;5.800;2024-02-26T01:56:34;3.20;99.90
55091;DHT22;40985;53.180;5.800;2024-02-26T01:59:01;3.10;99.90
55091;DHT22;40985;53.180;5.800;2024-02-26T02:01:27;3.30;99.90
55091;DHT22;40985;53.180;5.800;2024-02-26T02:03:56;3.20;99.90
55091;DHT22;40985;53.180;5.800;2024-02-26T02:06:23;3.10;99.90
55091;DHT22;40985;53.180;5.800;2024-02-26T02:08:49;3.30;99.90
55091;DHT22;40985;53.180;5.800;2024-02-26T02:11:15;3.20;99.90
55091;DHT22;40985;53.180;5.800;2024-02-26T02:13:41;3.30;99.90
55091;DHT22;40985;53.180;5.800;2024-02-26T02:16:07;3.30;99.90
55091;DHT22;40985;53.180;5.800;2024-02-26T02:18:33;3.30;99.90
55091;DHT22;40985;53.180;5.800;2024-02-26T02:21:02;3.10;99.90
55091;DHT22;40985;53.180;5.800;2024-02-26T02:23:28;3.30;99.90
55091;DHT22;40985;53.180;5.800;2024-02-26T02:25:54;3.10;99.90
55091;DHT22;40985;53.180;5.800;2024-02-26T02:28:23;3.30;99.90
55091;DHT22;40985;53.180;5.800;2024-02-26T02:30:50;3.20;99.90
55091;DHT22;40985;53.180;5.800;2024-02-26T02:33:16;3.20;99.90
55091;DHT22;40985;53.180;5.800;2024-02-26T02:35:42;3.20;99.90
55091;DHT22;40985;53.180;5.800;2024-02-26T02:38:08;3.00;99.90
55091;DHT22;40985;53.180;5.800;2024-02-26T02:40:34;3.30;99.90
55091;DHT22;40985;53.180;5.800;2024-02-26T02:43:00;3.20;99.90
55091;DHT22;40985;53.180;5.800;2024-02-26T02:45:27;3.20;99.90
55091;DHT22;40985;53.180;5.800;2024-02-26T02:47:53;3.30;99.90
55091;DHT22;40985;53.180;5.800;2024-02-26T02:50:19;3.10;99.90
55091;DHT22;40985;53.180;5.800;2024-02-26T02:52:45;3.20;99.90
55091;DHT22;40985;53.180;5.800;2024-02-26T02:55:11;3.30;99.90
55091;DHT22;40985;53.180;5.800;2024-02-26T02:57:36;3.40;99.90
55091;DHT22;40985;53.180;5.800;2024-02-26T03:00:08;3.10;99.90
55091;DHT22;40985;53.180;5.800;2024-02-26T03:02:34;3.30;99.90
55091;DHT22;40985;53.180;5.800;2024-02-26T03:05:02;3.10;99.90
55091;DHT22;40985;53.180;5.800;2024-02-26T03:07:28;3.30;99.90
55091;DHT22;40985;53.180;5.800;2024-02-26T03:09:54;3.30;99.90
55091;DHT22;40985;53.180;5.800;2024-02-26T03:12:20;3.30;99.90
55091;DHT22;40985;53.180;5.800;2024-02-26T03:14:46;3.30;99.90
55091;DHT22;40985;53.180;5.800;2024-02-26T03:17:12;3.10;99.90
55091;DHT22;40985;53.180;5.800;2024-02-26T03:19:37;3.10;99.90
55091;DHT22;40985;53.180;5.800;2024-02-26T03:22:03;3.20;99.90
55091;DHT22;40985;53.180;5.800;2024-02-26T03:24:29;3.30;99.90
55091;DHT22;40985;53.180;5.800;2024-02-26T03:26:54;3.20;99.90
55091;DHT22;40985;53.180;5.800;2024-02-26T03:29:20;3.30;99.90
55091;DHT22;40985;53.180;5.800;2024-02-26T03:31:46;3.20;99.90
55091;DHT22;40985;53.180;5.800;2024-02-26T03:34:12;3.20;99.90
55091;DHT22;40985;53.180;5.800;2024-02-26T03:36:39;3.20;99.90
55091;DHT22;40985;53.180;5.800;2024-02-26T03:39:04;3.30;99.90
55091;DHT22;40985;53.180;5.800;2024-02-26T03:41:33;3.10;99.90
55091;DHT22;40985;53.180;5.800;2024-02-26T03:43:59;3.30;99.90
55091;DHT22;40985;53.180;5.800;2024-02-26T03:46:25;3.30;99.90
55091;DHT22;40985;53.180;5.800;2024-02-26T03:48:50;3.30;99.90
55091;DHT22;40985;53.180;5.800;2024-02-26T03:51:16;3.30;99.90
55091;DHT22;40985;53.180;5.800;2024-02-26T03:53:41;3.20;99.90
55091;DHT22;40985;53.180;5.800;2024-02-26T03:56:07;3.20;99.90
55091;DHT22;40985;53.180;5.800;2024-02-26T03:58:33;3.20;99.90
55091;DHT22;40985;53.180;5.800;2024-02-26T04:01:00;3.30;99.90
55091;DHT22;40985;53.180;5.800;2024-02-26T04:03:25;3.20;99.90
55091;DHT22;40985;53.180;5.800;2024-02-26T04:05:51;3.30;99.90
55091;DHT22;40985;53.180;5.800;2024-02-26T04:08:17;3.20;99.90
55091;DHT22;40985;53.180;5.800;2024-02-26T04:10:42;3.20;99.90
55091;DHT22;40985;53.180;5.800;2024-02-26T04:13:08;3.50;99.90
55091;DHT22;40985;53.180;5.800;2024-02-26T04:15:34;3.40;99.90
55091;DHT22;40985;53.180;5.800;2024-02-26T04:17:59;3.30;99.90
55091;DHT22;40985;53.180;5.800;2024-02-26T04:20:26;3.30;99.90
55091;DHT22;40985;53.180;5.800;2024-02-26T04:22:51;3.30;99.90
55091;DHT22;40985;53.180;5.800;2024-02-26T04:25:17;3.50;99.90
55091;DHT22;40985;53.180;5.800;2024-02-26T04:27:43;3.40;99.90
55091;DHT22;40985;53.180;5.800;2024-02-26T04:30:09;3.40;99.90
55091;DHT22;40985;53.180;5.800;2024-02-26T04:32:34;3.40;99.90
55091;DHT22;40985;53.180;5.800;2024-02-26T04:35:02;3.50;99.90
55091;DHT22;40985;53.180;5.800;2024-02-26T04:37:27;3.50;99.90
55091;DHT22;40985;53.180;5.800;2024-02-26T04:40:01;3.50;99.90
55091;DHT22;40985;53.180;5.800;2024-02-26T04:42:27;3.60;99.90
55091;DHT22;40985;53.180;5.800;2024-02-26T04:44:54;3.50;99.90
55091;DHT22;40985;53.180;5.800;2024-02-26T04:47:20;3.60;99.90
55091;DHT22;40985;53.180;5.800;2024-02-26T04:49:50;3.50;99.90
55091;DHT22;40985;53.180;5.800;2024-02-26T04:52:18;3.50;99.90
55091;DHT22;40985;53.180;5.800;2024-02-26T04:54:44;3.50;99.90
55091;DHT22;40985;53.180;5.800;2024-02-26T04:57:09;3.70;99.90
55091;DHT22;40985;53.180;5.800;2024-02-26T04:59:35;3.70;99.90
55091;DHT22;40985;53.180;5.800;2024-02-26T05:02:01;3.70;99.90
55091;DHT22;40985;53.180;5.800;2024-02-26T05:04:26;3.60;99.90
55091;DHT22;40985;53.180;5.800;2024-02-26T05:06:52;3.60;99.90
55091;DHT22;40985;53.180;5.800;2024-02-26T05:09:18;3.70;99.90
55091;DHT22;40985;53.180;5.800;2024-02-26T05:11:44;3.70;99.90
55091;DHT22;40985;53.180;5.800;2024-02-26T05:14:10;3.70;99.90
55091;DHT22;40985;53.180;5.800;2024-02-26T05:16:35;3.70;99.90
55091;DHT22;40985;53.180;5.800;2024-02-26T05:19:01;3.70;99.90
55091;DHT22;40985;53.180;5.800;2024-02-26T05:21:27;3.70;99.90
55091;DHT22;40985;53.180;5.800;2024-02-26T05:23:52;3.70;99.90
55091;DHT22;40985;53.180;5.800;2024-02-26T05:26:22;3.80;99.90
55091;DHT22;40985;53.180;5.800;2024-02-26T05:28:48;3.80;99.90
55091;DHT22;40985;53.180;5.800;2024-02-26T05:31:14;3.80;99.90
55091;DHT22;40985;53.180;5.800;2024-02-26T05:33:40;3.80;99.90
55091;DHT22;40985;53.180;5.800;2024-02-26T05:36:06;3.80;99.90
55091;DHT22;40985;53.180;5.800;2024-02-26T05:38:32;3.80;99.90
55091;DHT22;40985;53.180;5.800;2024-02-26T05:40:58;3.80;99.90
55091;DHT22;40985;53.180;5.800;2024-02-26T05:43:26;3.80;99.90
55091;DHT22;40985;53.180;5.800;2024-02-26T05:45:52;3.80;99.90
55091;DHT22;40985;53.180;5.800;2024-02-26T05:48:19;3.70;99.90
55091;DHT22;40985;53.180;5.800;2024-02-26T05:50:45;3.70;99.90
55091;DHT22;40985;53.180;5.800;2024-02-26T05:53:11;3.80;99.90
55091;DHT22;40985;53.180;5.800;2024-02-26T05:55:37;3.80;99.90
55091;DHT22;40985;53.180;5.800;2024-02-26T05:58:03;3.80;99.90
55091;DHT22;40985;53.180;5.800;2024-02-26T06:00:29;3.70;99.90
55091;DHT22;40985;53.180;5.800;2024-02-26T06:02:55;3.70;99.90
55091;DHT22;40985;53.180;5.800;2024-02-26T06:05:20;3.70;99.90
55091;DHT22;40985;53.180;5.800;2024-02-26T06:07:46;3.70;99.90
55091;DHT22;40985;53.180;5.800;2024-02-26T06:10:12;3.70;99.90
55091;DHT22;40985;53.180;5.800;2024-02-26T06:12:39;3.70;99.90
55091;DHT22;40985;53.180;5.800;2024-02-26T06:15:06;3.70;99.90
55091;DHT22;40985;53.180;5.800;2024-02-26T06:17:31;3.70;99.90
55091;DHT22;40985;53.180;5.800;2024-02-26T06:19:57;3.70;99.90
55091;DHT22;40985;53.180;5.800;2024-02-26T06:22:25;3.70;99.90
55091;DHT22;40985;53.180;5.800;2024-02-26T06:24:50;3.70;99.90
55091;DHT22;40985;53.180;5.800;2024-02-26T06:27:16;3.70;99.90
55091;DHT22;40985;53.180;5.800;2024-02-26T06:29:42;3.70;99.90
55091;DHT22;40985;53.180;5.800;2024-02-26T06:32:07;3.70;99.90
55091;DHT22;40985;53.180;5.800;2024-02-26T06:34:33;3.70;99.90
55091;DHT22;40985;53.180;5.800;2024-02-26T06:36:59;3.80;99.90
55091;DHT22;40985;53.180;5.800;2024-02-26T06:39:24;3.80;99.90
55091;DHT22;40985;53.180;5.800;2024-02-26T06:41:50;3.80;99.90
55091;DHT22;40985;53.180;5.800;2024-02-26T06:44:16;3.80;99.90
55091;DHT22;40985;53.180;5.800;2024-02-26T06:46:41;3.90;99.90
55091;DHT22;40985;53.180;5.800;2024-02-26T06:49:07;3.90;99.90
55091;DHT22;40985;53.180;5.800;2024-02-26T06:51:32;3.90;99.90
55091;DHT22;40985;53.180;5.800;2024-02-26T06:53:58;3.90;99.90
55091;DHT22;40985;53.180;5.800;2024-02-26T06:56:24;3.90;99.90
55091;DHT22;40985;53.180;5.800;2024-02-26T06:58:49;3.90;99.90
55091;DHT22;40985;53.180;5.800;2024-02-26T07:01:15;3.90;99.90
55091;DHT22;40985;53.180;5.800;2024-02-26T07:03:41;3.90;99.90
55091;DHT22;40985;53.180;5.800;2024-02-26T07:06:08;3.90;99.90
55091;DHT22;40985;53.180;5.800;2024-02-26T07:08:34;3.80;99.90
55091;DHT22;40985;53.180;5.800;2024-02-26T07:10:59;3.80;99.90
55091;DHT22;40985;53.180;5.800;2024-02-26T07:13:25;3.80;99.90
55091;DHT22;40985;53.180;5.800;2024-02-26T07:15:51;3.90;99.90
55091;DHT22;40985;53.180;5.800;2024-02-26T07:18:16;3.90;99.90
55091;DHT22;40985;53.180;5.800;2024-02-26T07:20:42;3.80;99.90
55091;DHT22;40985;53.180;5.800;2024-02-26T07:23:08;3.90;99.90
55091;DHT22;40985;53.180;5.800;2024-02-26T07:25:33;3.90;99.90
55091;DHT22;40985;53.180;5.800;2024-02-26T07:27:59;3.80;99.90
55091;DHT22;40985;53.180;5.800;2024-02-26T07:30:25;3.80;99.90
55091;DHT22;40985;53.180;5.800;2024-02-26T07:32:50;3.90;99.90
55091;DHT22;40985;53.180;5.800;2024-02-26T07:35:16;3.90;99.90
55091;DHT22;40985;53.180;5.800;2024-02-26T07:37:43;3.90;99.90
55091;DHT22;40985;53.180;5.800;2024-02-26T07:40:09;3.90;99.90
55091;DHT22;40985;53.180;5.800;2024-02-26T07:42:35;3.90;99.90
55091;DHT22;40985;53.180;5.800;2024-02-26T07:45:01;3.90;99.90
55091;DHT22;40985;53.180;5.800;2024-02-26T07:47:27;3.90;99.90
55091;DHT22;40985;53.180;5.800;2024-02-26T07:49:53;3.90;99.90
55091;DHT22;40985;53.180;5.800;2024-02-26T07:52:18;3.90;99.90
55091;DHT22;40985;53.180;5.800;2024-02-26T07:54:44;4.00;99.90
55091;DHT22;40985;53.180;5.800;2024-02-26T07:57:10;3.90;99.90
55091;DHT22;40985;53.180;5.800;2024-02-26T07:59:35;4.00;99.90
55091;DHT22;40985;53.180;5.800;2024-02-26T08:02:01;4.00;99.90
55091;DHT22;40985;53.180;5.800;2024-02-26T08:04:29;4.00;99.90
55091;DHT22;40985;53.180;5.800;2024-02-26T08:06:54;4.00;99.90
55091;DHT22;40985;53.180;5.800;2024-02-26T08:09:20;4.00;99.90
55091;DHT22;40985;53.180;5.800;2024-02-26T08:11:46;4.00;99.90
55091;DHT22;40985;53.180;5.800;2024-02-26T08:14:11;4.10;99.90
55091;DHT22;40985;53.180;5.800;2024-02-26T08:16:37;4.10;99.90
55091;DHT22;40985;53.180;5.800;2024-02-26T08:19:03;4.10;99.90
55091;DHT22;40985;53.180;5.800;2024-02-26T08:21:29;4.10;99.90
55091;DHT22;40985;53.180;5.800;2024-02-26T08:23:54;4.10;99.90
55091;DHT22;40985;53.180;5.800;2024-02-26T08:26:20;4.20;99.90
55091;DHT22;40985;53.180;5.800;2024-02-26T08:28:47;4.20;99.90
55091;DHT22;40985;53.180;5.800;2024-02-26T08:31:14;4.20;99.90
55091;DHT22;40985;53.180;5.800;2024-02-26T08:33:40;4.30;99.90
55091;DHT22;40985;53.180;5.800;2024-02-26T08:36:06;4.30;99.90
55091;DHT22;40985;53.180;5.800;2024-02-26T08:38:32;4.30;99.90
55091;DHT22;40985;53.180;5.800;2024-02-26T08:41:01;4.40;99.90
55091;DHT22;40985;53.180;5.800;2024-02-26T08:43:27;4.40;99.90
55091;DHT22;40985;53.180;5.800;2024-02-26T08:45:53;4.50;99.90
55091;DHT22;40985;53.180;5.800;2024-02-26T08:48:18;4.50;99.90
55091;DHT22;40985;53.180;5.800;2024-02-26T08:50:44;4.50;99.90
55091;DHT22;40985;53.180;5.800;2024-02-26T08:53:10;4.50;99.90
55091;DHT22;40985;53.180;5.800;2024-02-26T08:55:35;4.60;99.90
55091;DHT22;40985;53.180;5.800;2024-02-26T08:58:01;4.60;99.90
55091;DHT22;40985;53.180;5.800;2024-02-26T09:00:27;4.60;99.90
55091;DHT22;40985;53.180;5.800;2024-02-26T09:02:52;4.70;99.90
55091;DHT22;40985;53.180;5.800;2024-02-26T09:05:18;4.70;99.90
55091;DHT22;40985;53.180;5.800;2024-02-26T09:07:44;4.70;99.90
55091;DHT22;40985;53.180;5.800;2024-02-26T09:10:09;4.70;99.90
55091;DHT22;40985;53.180;5.800;2024-02-26T09:12:36;4.70;99.90
55091;DHT22;40985;53.180;5.800;2024-02-26T09:15:03;4.80;99.90
55091;DHT22;40985;53.180;5.800;2024-02-26T09:17:28;4.80;99.90
55091;DHT22;40985;53.180;5.800;2024-02-26T09:19:54;4.90;99.90
55091;DHT22;40985;53.180;5.800;2024-02-26T09:22:20;4.90;99.90
55091;DHT22;40985;53.180;5.800;2024-02-26T09:24:46;4.90;99.90
55091;DHT22;40985;53.180;5.800;2024-02-26T09:27:11;4.90;99.90
55091;DHT22;40985;53.180;5.800;2024-02-26T09:29:37;5.00;99.90
55091;DHT22;40985;53.180;5.800;2024-02-26T09:32:03;5.00;99.90
55091;DHT22;40985;53.180;5.800;2024-02-26T09:34:29;5.10;99.90
55091;DHT22;40985;53.180;5.800;2024-02-26T09:36:54;5.10;99.90
55091;DHT22;40985;53.180;5.800;2024-02-26T09:39:20;5.10;99.90
55091;DHT22;40985;53.180;5.800;2024-02-26T09:41:48;5.20;99.90
55091;DHT22;40985;53.180;5.800;2024-02-26T09:44:20;5.20;99.90
55091;DHT22;40985;53.180;5.800;2024-02-26T09:46:47;5.20;99.90
55091;DHT22;40985;53.180;5.800;2024-02-26T09:49:15;5.30;99.90
55091;DHT22;40985;53.180;5.800;2024-02-26T09:51:41;5.40;99.90
55091;DHT22;40985;53.180;5.800;2024-02-26T09:54:09;5.40;99.90
55091;DHT22;40985;53.180;5.800;2024-02-26T09:56:38;5.50;99.90
55091;DHT22;40985;53.180;5.800;2024-02-26T09:59:06;5.50;99.90
55091;DHT22;40985;53.180;5.800;2024-02-26T10:01:36;5.50;99.90
55091;DHT22;40985;53.180;5.800;2024-02-26T10:04:04;5.50;99.90
55091;DHT22;40985;53.180;5.800;2024-02-26T10:06:30;5.60;99.90
55091;DHT22;40985;53.180;5.800;2024-02-26T10:08:56;5.50;99.90
55091;DHT22;40985;53.180;5.800;2024-02-26T10:11:25;5.60;99.90
55091;DHT22;40985;53.180;5.800;2024-02-26T10:13:51;5.60;99.90
55091;DHT22;40985;53.180;5.800;2024-02-26T10:16:16;5.60;99.90
55091;DHT22;40985;53.180;5.800;2024-02-26T10:18:49;5.60;99.90
55091;DHT22;40985;53.180;5.800;2024-02-26T10:21:22;5.60;99.90
55091;DHT22;40985;53.180;5.800;2024-02-26T10:23:48;5.60;99.90
55091;DHT22;40985;53.180;5.800;2024-02-26T10:26:15;5.60;99.90
55091;DHT22;40985;53.180;5.800;2024-02-26T10:28:45;5.60;99.90
55091;DHT22;40985;53.180;5.800;2024-02-26T10:31:11;5.60;99.90
55091;DHT22;40985;53.180;5.800;2024-02-26T10:33:40;5.60;99.90
55091;DHT22;40985;53.180;5.800;2024-02-26T10:36:07;5.60;99.90
55091;DHT22;40985;53.180;5.800;2024-02-26T10:38:35;5.60;99.90
55091;DHT22;40985;53.180;5.800;2024-02-26T10:41:10;5.60;99.90
55091;DHT22;40985;53.180;5.800;2024-02-26T10:43:38;5.60;99.90
55091;DHT22;40985;53.180;5.800;2024-02-26T10:46:03;5.60;99.90
55091;DHT22;40985;53.180;5.800;2024-02-26T10:48:30;5.60;99.90
55091;DHT22;40985;53.180;5.800;2024-02-26T10:50:56;5.60;99.90
55091;DHT22;40985;53.180;5.800;2024-02-26T10:53:26;5.60;99.90
55091;DHT22;40985;53.180;5.800;2024-02-26T10:56:01;5.70;99.90
55091;DHT22;40985;53.180;5.800;2024-02-26T10:58:27;5.80;99.90
55091;DHT22;40985;53.180;5.800;2024-02-26T11:00:56;5.80;99.90
55091;DHT22;40985;53.180;5.800;2024-02-26T11:03:22;5.70;99.90
55091;DHT22;40985;53.180;5.800;2024-02-26T11:05:49;5.70;99.90
55091;DHT22;40985;53.180;5.800;2024-02-26T11:08:16;5.70;99.90
55091;DHT22;40985;53.180;5.800;2024-02-26T11:10:43;5.70;99.90
55091;DHT22;40985;53.180;5.800;2024-02-26T11:13:12;5.70;99.90
55091;DHT22;40985;53.180;5.800;2024-02-26T11:15:40;5.70;99.90
55091;DHT22;40985;53.180;5.800;2024-02-26T11:18:07;5.80;99.90
55091;DHT22;40985;53.180;5.800;2024-02-26T11:20:34;5.70;99.90
55091;DHT22;40985;53.180;5.800;2024-02-26T11:23:04;5.80;99.90
55091;DHT22;40985;53.180;5.800;2024-02-26T11:25:30;5.80;99.90
55091;DHT22;40985;53.180;5.800;2024-02-26T11:27:58;5.80;99.90
55091;DHT22;40985;53.180;5.800;2024-02-26T11:30:30;5.80;99.90
55091;DHT22;40985;53.180;5.800;2024-02-26T11:32:57;5.80;99.90
55091;DHT22;40985;53.180;5.800;2024-02-26T11:35:23;5.80;99.90
55091;DHT22;40985;53.180;5.800;2024-02-26T11:37:56;5.90;99.90
55091;DHT22;40985;53.180;5.800;2024-02-26T11:40:25;5.90;99.90
55091;DHT22;40985;53.180;5.800;2024-02-26T11:42:51;6.00;99.90
55091;DHT22;40985;53.180;5.800;2024-02-26T11:48:15;5.90;99.90
55091;DHT22;40985;53.180;5.800;2024-02-26T11:50:53;5.90;99.90
55091;DHT22;40985;53.180;5.800;2024-02-26T11:53:26;5.80;99.90
55091;DHT22;40985;53.180;5.800;2024-02-26T11:58:39;5.80;99.90
55091;DHT22;40985;53.180;5.800;2024-02-26T12:01:05;5.80;99.90
55091;DHT22;40985;53.180;5.800;2024-02-26T12:03:31;5.90;99.90
55091;DHT22;40985;53.180;5.800;2024-02-26T12:05:56;5.90;99.90
55091;DHT22;40985;53.180;5.800;2024-02-26T12:08:22;6.00;99.90
55091;DHT22;40985;53.180;5.800;2024-02-26T12:10:51;5.90;99.90
55091;DHT22;40985;53.180;5.800;2024-02-26T12:13:29;5.90;99.90
55091;DHT22;40985;53.180;5.800;2024-02-26T12:15:57;6.00;99.90
55091;DHT22;40985;53.180;5.800;2024-02-26T12:18:23;5.90;99.90
55091;DHT22;40985;53.180;5.800;2024-02-26T12:21:03;5.90;99.90
55091;DHT22;40985;53.180;5.800;2024-02-26T12:23:29;6.00;99.90
55091;DHT22;40985;53.180;5.800;2024-02-26T12:26:02;5.90;99.90
55091;DHT22;40985;53.180;5.800;2024-02-26T12:28:29;5.80;99.90
55091;DHT22;40985;53.180;5.800;2024-02-26T12:30:55;5.80;99.90
55091;DHT22;40985;53.180;5.800;2024-02-26T12:33:21;5.80;99.90
55091;DHT22;40985;53.180;5.800;2024-02-26T12:35:47;5.80;99.90
55091;DHT22;40985;53.180;5.800;2024-02-26T12:38:16;5.80;99.90
55091;DHT22;40985;53.180;5.800;2024-02-26T12:40:42;5.90;99.90
55091;DHT22;40985;53.180;5.800;2024-02-26T12:43:08;5.90;99.90
55091;DHT22;40985;53.180;5.800;2024-02-26T12:45:40;6.00;99.90
55091;DHT22;40985;53.180;5.800;2024-02-26T12:48:07;6.00;99.90
55091;DHT22;40985;53.180;5.800;2024-02-26T12:50:32;5.90;99.90
55091;DHT22;40985;53.180;5.800;2024-02-26T12:52:59;5.90;99.90
55091;DHT22;40985;53.180;5.800;2024-02-26T12:55:25;5.90;99.90
55091;DHT22;40985;53.180;5.800;2024-02-26T12:57:52;5.90;99.90
55091;DHT22;40985;53.180;5.800;2024-02-26T13:00:23;5.80;99.90
55091;DHT22;40985;53.180;5.800;2024-02-26T13:02:50;5.90;99.90
55091;DHT22;40985;53.180;5.800;2024-02-26T13:05:18;5.80;99.90
55091;DHT22;40985;53.180;5.800;2024-02-26T13:07:45;5.80;99.90
55091;DHT22;40985;53.180;5.800;2024-02-26T13:10:13;5.80;99.90
55091;DHT22;40985;53.180;5.800;2024-02-26T13:12:46;5.70;99.90
55091;DHT22;40985;53.180;5.800;2024-02-26T13:15:17;5.70;99.90
55091;DHT22;40985;53.180;5.800;2024-02-26T13:17:44;5.70;99.90
55091;DHT22;40985;53.180;5.800;2024-02-26T13:20:10;5.60;99.90
55091;DHT22;40985;53.180;5.800;2024-02-26T13:22:36;5.60;99.90
55091;DHT22;40985;53.180;5.800;2024-02-26T13:25:02;5.40;99.90
55091;DHT22;40985;53.180;5.800;2024-02-26T13:27:28;5.50;99.90
55091;DHT22;40985;53.180;5.800;2024-02-26T13:32:40;5.40;99.90
55091;DHT22;40985;53.180;5.800;2024-02-26T13:35:06;5.20;99.90
55091;DHT22;40985;53.180;5.800;2024-02-26T13:37:33;5.20;99.90
55091;DHT22;40985;53.180;5.800;2024-02-26T13:39:59;5.20;99.90
55091;DHT22;40985;53.180;5.800;2024-02-26T13:42:25;5.20;99.90
55091;DHT22;40985;53.180;5.800;2024-02-26T13:44:50;5.30;99.90
55091;DHT22;40985;53.180;5.800;2024-02-26T13:47:16;5.30;99.90
55091;DHT22;40985;53.180;5.800;2024-02-26T13:49:43;5.30;99.90
55091;DHT22;40985;53.180;5.800;2024-02-26T13:52:09;5.30;99.90
55091;DHT22;40985;53.180;5.800;2024-02-26T13:54:35;5.30;99.90
55091;DHT22;40985;53.180;5.800;2024-02-26T13:57:00;5.20;99.90
55091;DHT22;40985;53.180;5.800;2024-02-26T13:59:26;5.20;99.90
55091;DHT22;40985;53.180;5.800;2024-02-26T14:01:52;5.20;99.90
55091;DHT22;40985;53.180;5.800;2024-02-26T14:04:20;5.20;99.90
55091;DHT22;40985;53.180;5.800;2024-02-26T14:06:46;5.20;99.90
55091;DHT22;40985;53.180;5.800;2024-02-26T14:09:12;5.20;99.90
55091;DHT22;40985;53.180;5.800;2024-02-26T14:11:45;5.20;99.90
55091;DHT22;40985;53.180;5.800;2024-02-26T14:14:10;5.20;99.90
55091;DHT22;40985;53.180;5.800;2024-02-26T14:16:36;5.20;99.90
55091;DHT22;40985;53.180;5.800;2024-02-26T14:19:02;5.20;99.90
55091;DHT22;40985;53.180;5.800;2024-02-26T14:21:28;5.20;99.90
55091;DHT22;40985;53.180;5.800;2024-02-26T14:23:55;5.20;99.90
55091;DHT22;40985;53.180;5.800;2024-02-26T14:26:22;5.20;99.90
55091;DHT22;40985;53.180;5.800;2024-02-26T14:28:48;5.20;99.90
55091;DHT22;40985;53.180;5.800;2024-02-26T14:31:17;5.10;99.90
55091;DHT22;40985;53.180;5.800;2024-02-26T14:33:43;5.10;99.90
55091;DHT22;40985;53.180;5.800;2024-02-26T14:36:09;5.20;99.90
55091;DHT22;40985;53.180;5.800;2024-02-26T14:38:35;5.10;99.90
55091;DHT22;40985;53.180;5.800;2024-02-26T14:41:01;5.20;99.90
55091;DHT22;40985;53.180;5.800;2024-02-26T14:43:28;5.20;99.90
55091;DHT22;40985;53.180;5.800;2024-02-26T14:45:53;5.20;99.90
55091;DHT22;40985;53.180;5.800;2024-02-26T14:48:19;5.20;99.90
55091;DHT22;40985;53.180;5.800;2024-02-26T14:50:45;5.20;99.90
55091;DHT22;40985;53.180;5.800;2024-02-26T14:53:11;5.20;99.90
55091;DHT22;40985;53.180;5.800;2024-02-26T14:55:36;5.20;99.90
55091;DHT22;40985;53.180;5.800;2024-02-26T14:58:02;5.20;99.90
55091;DHT22;40985;53.180;5.800;2024-02-26T15:00:28;5.20;99.90
55091;DHT22;40985;53.180;5.800;2024-02-26T15:02:53;5.20;99.90
55091;DHT22;40985;53.180;5.800;2024-02-26T15:05:20;5.20;99.90
55091;DHT22;40985;53.180;5.800;2024-02-26T15:07:46;5.20;99.90
55091;DHT22;40985;53.180;5.800;2024-02-26T15:10:11;5.20;99.90
55091;DHT22;40985;53.180;5.800;2024-02-26T15:12:38;5.20;99.90
55091;DHT22;40985;53.180;5.800;2024-02-26T15:15:04;5.20;99.90
55091;DHT22;40985;53.180;5.800;2024-02-26T15:17:30;5.20;99.90
55091;DHT22;40985;53.180;5.800;2024-02-26T15:19:57;5.20;99.90
55091;DHT22;40985;53.180;5.800;2024-02-26T15:22:24;5.20;99.90
55091;DHT22;40985;53.180;5.800;2024-02-26T15:24:50;5.30;99.90
55091;DHT22;40985;53.180;5.800;2024-02-26T15:27:16;5.20;99.90
55091;DHT22;40985;53.180;5.800;2024-02-26T15:29:42;5.20;99.90
55091;DHT22;40985;53.180;5.800;2024-02-26T15:32:08;5.20;99.90
55091;DHT22;40985;53.180;5.800;2024-02-26T15:34:33;5.20;99.90
55091;DHT22;40985;53.180;5.800;2024-02-26T15:36:59;5.10;99.90
55091;DHT22;40985;53.180;5.800;2024-02-26T15:39:25;5.20;99.90
55091;DHT22;40985;53.180;5.800;2024-02-26T15:41:50;5.20;99.90
55091;DHT22;40985;53.180;5.800;2024-02-26T15:44:17;5.10;99.90
55091;DHT22;40985;53.180;5.800;2024-02-26T15:46:43;5.10;99.90
55091;DHT22;40985;53.180;5.800;2024-02-26T15:49:09;5.10;99.90